createdAt,value
2023-05-22T00:01:32.739Z,2.00
2023-05-22T00:04:02.944Z,2.00
2023-05-22T00:06:31.385Z,2.00
2023-05-22T00:08:59.796Z,3.00
2023-05-22T00:11:27.896Z,2.00
2023-05-22T00:13:55.927Z,2.00
2023-05-22T00:18:51.943Z,2.00
2023-05-22T00:21:20.214Z,2.00
2023-05-22T00:23:48.295Z,1.50
2023-05-22T00:26:16.782Z,2.00
2023-05-22T00:29:44.909Z,2.00
2023-05-22T00:32:14.477Z,1.00
2023-05-22T00:34:42.657Z,2.00
2023-05-22T00:37:11.000Z,2.00
2023-05-22T00:42:07.284Z,2.00
2023-05-22T00:44:35.441Z,1.00
2023-05-22T00:47:03.468Z,1.00
2023-05-22T00:49:31.969Z,2.00
2023-05-22T00:52:01.121Z,2.00
2023-05-22T00:54:30.935Z,1.00
2023-05-22T00:57:01.535Z,2.00
2023-05-22T01:00:30.334Z,1.50
2023-05-22T01:04:19.858Z,2.00
2023-05-22T01:07:38.940Z,1.00
2023-05-22T01:10:38.897Z,1.00
2023-05-22T01:13:39.972Z,1.00
2023-05-22T01:16:51.152Z,1.00
2023-05-22T01:20:30.362Z,2.00
2023-05-22T01:23:57.684Z,1.00
2023-05-22T01:26:37.853Z,1.00
2023-05-22T01:29:06.332Z,2.00
2023-05-22T01:31:39.624Z,1.00
2023-05-22T01:34:11.761Z,1.00
2023-05-22T01:36:43.506Z,2.00
2023-05-22T01:39:12.716Z,2.00
2023-05-22T01:41:41.334Z,1.00
2023-05-22T01:44:09.397Z,2.00
2023-05-22T01:46:37.612Z,3.00
2023-05-22T01:49:06.153Z,2.00
2023-05-22T01:51:34.267Z,2.50
2023-05-22T01:56:41.416Z,2.00
2023-05-22T01:59:58.625Z,2.00
2023-05-22T02:02:29.299Z,2.00
2023-05-22T02:07:30.462Z,1.50
2023-05-22T02:09:59.425Z,2.00
2023-05-22T02:13:28.178Z,1.50
2023-05-22T02:16:38.234Z,2.00
2023-05-22T02:19:07.960Z,1.00
2023-05-22T02:21:36.489Z,3.00
2023-05-22T02:24:04.937Z,2.00
2023-05-22T02:26:33.018Z,2.00
2023-05-22T02:29:01.380Z,3.00
2023-05-22T02:32:30.226Z,2.00
2023-05-22T02:34:58.908Z,2.00
2023-05-22T02:37:26.906Z,3.00
2023-05-22T02:39:54.980Z,3.00
2023-05-22T02:42:23.189Z,4.00
2023-05-22T02:44:51.338Z,3.00
2023-05-22T02:47:19.470Z,3.00
2023-05-22T02:49:47.681Z,3.00
2023-05-22T02:56:11.229Z,2.00
2023-05-22T02:58:39.719Z,3.00
2023-05-22T03:01:10.571Z,3.00
2023-05-22T03:03:38.716Z,3.00
2023-05-22T03:13:34.407Z,4.00
2023-05-22T03:16:03.037Z,4.00
2023-05-22T03:18:31.389Z,4.50
2023-05-22T03:20:59.479Z,4.00
2023-05-22T03:23:36.002Z,4.00
2023-05-22T03:26:04.163Z,4.50
2023-05-22T03:28:34.113Z,4.00
2023-05-22T03:31:02.197Z,4.00
2023-05-22T03:33:55.395Z,2.00
2023-05-22T03:36:23.722Z,5.00
2023-05-22T03:38:52.541Z,3.00
2023-05-22T03:41:20.812Z,2.00
2023-05-22T03:43:49.032Z,3.00
2023-05-22T03:46:17.194Z,3.00
2023-05-22T03:48:45.473Z,2.00
2023-05-22T03:51:13.700Z,3.00
2023-05-22T03:53:41.962Z,3.00
2023-05-22T03:56:10.052Z,2.00
2023-05-22T03:58:38.018Z,3.00
2023-05-22T04:01:10.114Z,2.00
2023-05-22T04:03:38.270Z,4.00
2023-05-22T04:06:07.828Z,4.00
2023-05-22T04:08:36.081Z,4.00
2023-05-22T04:11:05.541Z,3.00
2023-05-22T04:14:34.294Z,3.00
2023-05-22T04:17:03.343Z,2.00
2023-05-22T04:19:31.420Z,3.50
2023-05-22T04:21:59.559Z,3.00
2023-05-22T04:24:27.832Z,3.00
2023-05-22T04:26:56.312Z,3.00
2023-05-22T04:29:24.830Z,3.00
2023-05-22T04:31:54.573Z,4.00
2023-05-22T04:34:22.758Z,3.00
2023-05-22T04:36:50.848Z,3.00
2023-05-22T04:39:19.079Z,4.00
2023-05-22T04:41:47.125Z,4.00
2023-05-22T04:45:15.236Z,3.00
2023-05-22T04:47:43.939Z,3.00
2023-05-22T04:50:12.131Z,3.00
2023-05-22T04:52:40.153Z,4.00
2023-05-22T04:57:37.706Z,4.00
2023-05-22T05:00:07.380Z,4.00
2023-05-22T05:02:37.710Z,3.00
2023-05-22T05:05:06.050Z,4.00
2023-05-22T05:07:38.806Z,3.00
2023-05-22T05:10:07.537Z,3.50
2023-05-22T05:12:35.775Z,3.50
2023-05-22T05:15:11.839Z,1.00
2023-05-22T05:22:56.700Z,1.00
2023-05-22T05:26:24.905Z,4.00
2023-05-22T05:28:53.956Z,3.00
2023-05-22T05:31:22.725Z,4.00
2023-05-22T05:34:33.046Z,3.00
2023-05-22T05:42:03.794Z,2.50
2023-05-22T05:44:31.915Z,3.00
2023-05-22T05:47:24.181Z,3.00
2023-05-22T05:49:52.735Z,3.00
2023-05-22T05:52:21.613Z,2.00
2023-05-22T05:54:50.253Z,1.00
2023-05-22T05:57:29.701Z,3.00
2023-05-22T05:59:58.262Z,3.00
2023-05-22T06:02:47.561Z,2.00
2023-05-22T06:06:19.456Z,3.50
2023-05-22T06:09:10.945Z,2.00
2023-05-22T06:12:06.468Z,1.50
2023-05-22T06:14:34.752Z,3.00
2023-05-22T06:17:02.968Z,2.00
2023-05-22T06:21:59.306Z,2.50
2023-05-22T06:24:27.433Z,2.00
2023-05-22T06:26:55.596Z,2.00
2023-05-22T06:29:23.991Z,4.00
2023-05-22T06:31:52.356Z,3.00
2023-05-22T06:34:22.539Z,3.00
2023-05-22T06:37:12.027Z,4.00
2023-05-22T06:42:19.818Z,3.00
2023-05-22T06:45:07.335Z,3.00
2023-05-22T06:47:42.837Z,3.00
2023-05-22T06:50:11.331Z,2.00
2023-05-22T06:57:46.211Z,3.00
2023-05-22T07:00:15.499Z,3.00
2023-05-22T07:03:06.419Z,2.00
2023-05-22T07:05:42.477Z,3.00
2023-05-22T07:08:32.676Z,3.00
2023-05-22T07:11:02.178Z,2.00
2023-05-22T07:13:32.201Z,3.00
2023-05-22T07:18:28.350Z,4.00
2023-05-22T07:20:56.595Z,3.00
2023-05-22T07:23:26.305Z,2.00
2023-05-22T07:25:54.521Z,3.00
2023-05-22T07:28:44.089Z,3.00
2023-05-22T07:31:14.635Z,3.00
2023-05-22T07:33:42.601Z,2.00
2023-05-22T07:36:11.777Z,2.00
2023-05-22T07:38:40.315Z,2.00
2023-05-22T07:43:36.406Z,3.00
2023-05-22T07:46:09.491Z,2.50
2023-05-22T07:49:03.093Z,2.00
2023-05-22T07:54:00.719Z,3.00
2023-05-22T07:56:29.607Z,3.50
2023-05-22T07:58:57.858Z,3.00
2023-05-22T08:01:26.022Z,3.00
2023-05-22T08:03:54.366Z,0.00
2023-05-22T08:06:23.760Z,3.00
2023-05-22T08:11:23.013Z,3.00
2023-05-22T08:13:51.054Z,4.00
2023-05-22T08:16:19.133Z,2.50
2023-05-22T08:18:55.558Z,3.00
2023-05-22T08:21:23.632Z,4.00
2023-05-22T08:23:51.552Z,3.00
2023-05-22T08:26:19.599Z,2.50
2023-05-22T08:28:48.395Z,3.00
2023-05-22T08:31:16.753Z,2.00
2023-05-22T08:33:44.976Z,2.00
2023-05-22T08:36:13.522Z,2.00
2023-05-22T08:38:41.964Z,1.00
2023-05-22T08:41:10.625Z,3.00
2023-05-22T08:43:38.748Z,3.50
2023-05-22T08:46:09.147Z,2.50
2023-05-22T08:48:57.143Z,3.00
2023-05-22T08:51:31.447Z,2.00
2023-05-22T08:54:01.143Z,3.00
2023-05-22T08:59:01.345Z,4.00
2023-05-22T09:01:30.531Z,4.00
2023-05-22T09:04:01.779Z,3.50
2023-05-22T09:08:59.794Z,3.00
2023-05-22T09:11:27.799Z,2.00
2023-05-22T09:14:12.022Z,2.00
2023-05-22T09:16:47.681Z,2.00
2023-05-22T09:21:45.181Z,3.00
2023-05-22T09:24:13.552Z,2.00
2023-05-22T09:26:41.856Z,2.00
2023-05-22T09:29:09.991Z,2.00
2023-05-22T09:31:43.312Z,2.00
2023-05-22T09:34:14.433Z,3.00
2023-05-22T09:36:42.809Z,2.00
2023-05-22T09:39:11.124Z,2.00
2023-05-22T09:41:40.487Z,2.00
2023-05-22T09:44:16.505Z,3.00
2023-05-22T09:46:46.396Z,2.50
2023-05-22T09:49:16.410Z,2.00
2023-05-22T09:51:48.478Z,2.50
2023-05-22T09:54:18.882Z,3.00
2023-05-22T09:59:27.368Z,3.00
2023-05-22T10:01:55.919Z,2.00
2023-05-22T10:04:24.854Z,1.50
2023-05-22T10:06:58.053Z,3.00
2023-05-22T10:09:33.667Z,2.00
2023-05-22T10:12:07.412Z,2.00
2023-05-22T10:14:36.253Z,3.00
2023-05-22T10:17:06.784Z,3.00
2023-05-22T10:19:38.583Z,3.00
2023-05-22T10:22:11.788Z,2.00
2023-05-22T10:24:40.085Z,3.00
2023-05-22T10:27:08.079Z,4.00
2023-05-22T10:32:28.300Z,1.00
2023-05-22T10:34:57.086Z,4.00
2023-05-22T10:37:42.276Z,3.00
2023-05-22T10:40:18.283Z,1.00
2023-05-22T10:42:46.908Z,2.00
2023-05-22T10:45:36.752Z,3.50
2023-05-22T10:48:06.649Z,4.00
2023-05-22T10:50:38.766Z,3.00
2023-05-22T10:53:31.443Z,4.00
2023-05-22T10:58:42.742Z,3.00
2023-05-22T11:01:11.041Z,3.00
2023-05-22T11:03:59.047Z,5.00
2023-05-22T11:06:35.120Z,3.00
2023-05-22T11:09:29.321Z,4.00
2023-05-22T11:12:24.707Z,3.00
2023-05-22T11:14:56.704Z,4.00
2023-05-22T11:17:27.941Z,3.00
2023-05-22T11:20:01.514Z,3.00
2023-05-22T11:22:37.369Z,3.00
2023-05-22T11:27:36.639Z,3.00
2023-05-22T11:30:05.266Z,4.00
2023-05-22T11:32:36.336Z,3.50
2023-05-22T11:35:08.700Z,3.00
2023-05-22T11:40:09.255Z,3.50
2023-05-22T11:47:34.782Z,3.50
2023-05-22T11:50:03.399Z,4.00
2023-05-22T11:52:35.834Z,3.00
2023-05-22T11:55:09.909Z,3.00
2023-05-22T11:57:38.744Z,3.00
2023-05-22T12:00:08.708Z,3.00
2023-05-22T12:02:47.721Z,4.00
2023-05-22T12:05:16.788Z,2.00
2023-05-22T12:10:15.089Z,3.00
2023-05-22T12:12:44.329Z,3.00
2023-05-22T12:15:12.780Z,3.00
2023-05-22T12:17:41.142Z,4.00
2023-05-22T12:20:13.677Z,4.00
2023-05-22T12:25:17.250Z,4.00
2023-05-22T12:27:46.575Z,5.00
2023-05-22T12:30:15.213Z,3.50
2023-05-22T12:32:50.810Z,4.50
2023-05-22T12:35:19.483Z,4.00
2023-05-22T12:37:49.911Z,2.00
2023-05-22T12:40:18.150Z,3.00
2023-05-22T12:45:14.409Z,3.00
2023-05-22T12:47:42.587Z,3.00
2023-05-22T12:50:10.894Z,3.00
2023-05-22T12:52:38.924Z,4.00
2023-05-22T12:55:08.310Z,3.00
2023-05-22T12:57:36.354Z,4.00
2023-05-22T13:02:34.348Z,3.00
2023-05-22T13:05:18.885Z,3.00
2023-05-22T13:10:15.018Z,4.00
2023-05-22T13:12:44.886Z,2.00
2023-05-22T13:15:15.459Z,2.00
2023-05-22T13:17:43.530Z,2.00
2023-05-22T13:20:12.463Z,4.00
2023-05-22T13:22:41.859Z,4.00
2023-05-22T13:25:10.134Z,2.00
2023-05-22T13:30:06.847Z,3.00
2023-05-22T13:32:35.337Z,5.00
2023-05-22T13:35:04.091Z,4.00
2023-05-22T13:37:32.304Z,3.00
2023-05-22T13:40:00.611Z,3.00
2023-05-22T13:42:28.693Z,3.50
2023-05-22T13:44:56.769Z,4.00
2023-05-22T13:47:26.157Z,3.50
2023-05-22T13:49:54.198Z,4.00
2023-05-22T13:52:22.835Z,4.00
2023-05-22T13:54:52.978Z,3.00
2023-05-22T13:57:20.872Z,3.00
2023-05-22T13:59:49.099Z,4.00
2023-05-22T14:02:19.793Z,5.50
2023-05-22T14:07:17.000Z,2.00
2023-05-22T14:09:45.071Z,4.00
2023-05-22T14:12:13.033Z,5.00
2023-05-22T14:14:41.042Z,4.50
2023-05-22T14:19:38.922Z,4.00
2023-05-22T14:22:06.923Z,3.00
2023-05-22T14:24:35.032Z,4.00
2023-05-22T14:27:03.070Z,4.00
2023-05-22T14:32:04.441Z,4.00
2023-05-22T14:37:00.420Z,5.00
2023-05-22T14:39:28.552Z,5.50
2023-05-22T14:41:56.534Z,4.00
2023-05-22T14:46:53.712Z,6.00
2023-05-22T14:49:21.696Z,5.00
2023-05-22T14:51:49.819Z,4.00
2023-05-22T14:54:19.259Z,3.50
2023-05-22T14:56:47.468Z,4.00
2023-05-22T14:59:15.697Z,5.00
2023-05-22T15:01:43.881Z,3.00
2023-05-22T15:04:11.877Z,5.00
2023-05-22T15:06:40.031Z,4.00
2023-05-22T15:09:08.770Z,4.50
2023-05-22T15:11:37.153Z,4.00
2023-05-22T15:14:05.214Z,2.50
2023-05-22T15:16:41.381Z,4.00
2023-05-22T15:19:09.640Z,3.00
2023-05-22T15:21:38.079Z,2.00
2023-05-22T15:24:06.316Z,3.00
2023-05-22T15:26:35.165Z,4.00
2023-05-22T15:29:03.939Z,4.00
2023-05-22T15:31:32.223Z,5.00
2023-05-22T15:34:00.374Z,5.00
2023-05-22T15:36:31.432Z,3.00
2023-05-22T15:38:59.573Z,4.00
2023-05-22T15:41:27.600Z,3.00
2023-05-22T15:43:56.256Z,3.00
2023-05-22T15:48:52.626Z,2.00
2023-05-22T15:51:20.644Z,3.50
2023-05-22T15:53:50.930Z,0.00
2023-05-22T15:56:18.974Z,2.00
2023-05-22T15:58:46.955Z,3.50
2023-05-22T16:01:15.615Z,2.00
2023-05-22T16:03:43.817Z,3.00
2023-05-22T16:06:11.957Z,3.00
2023-05-22T16:11:11.808Z,3.00
2023-05-22T16:13:40.255Z,3.50
2023-05-22T16:16:08.438Z,5.00
2023-05-22T16:18:36.494Z,5.00
2023-05-22T16:21:04.729Z,2.00
2023-05-22T16:23:32.937Z,2.50
2023-05-22T16:26:01.082Z,4.00
2023-05-22T16:28:29.165Z,3.00
2023-05-22T16:30:57.236Z,4.00
2023-05-22T16:33:25.662Z,4.00
2023-05-22T16:35:53.735Z,4.00
2023-05-22T16:38:21.930Z,4.50
2023-05-22T16:40:50.063Z,3.00
2023-05-22T16:43:18.354Z,4.00
2023-05-22T16:45:51.266Z,3.00
2023-05-22T16:48:19.723Z,2.50
2023-05-22T16:50:47.917Z,4.00
2023-05-22T16:53:17.362Z,4.00
2023-05-22T16:55:45.818Z,2.00
2023-05-22T16:58:14.136Z,4.00
2023-05-22T17:03:12.163Z,4.00
2023-05-22T17:05:41.107Z,3.50
2023-05-22T17:10:59.112Z,5.00
2023-05-22T17:13:27.201Z,4.50
2023-05-22T17:15:55.703Z,5.00
2023-05-22T17:18:23.892Z,4.00
2023-05-22T17:20:54.163Z,4.00
2023-05-22T17:23:27.514Z,3.00
2023-05-22T17:25:56.165Z,3.50
2023-05-22T17:28:24.390Z,3.50
2023-05-22T17:31:33.204Z,4.50
2023-05-22T17:34:02.005Z,3.00
2023-05-22T17:36:32.213Z,6.00
2023-05-22T17:41:28.985Z,3.50
2023-05-22T17:44:00.252Z,3.00
2023-05-22T17:46:28.388Z,5.00
2023-05-22T17:48:56.602Z,3.50
2023-05-22T17:52:25.305Z,3.00
2023-05-22T17:54:56.267Z,3.50
2023-05-22T17:57:24.363Z,3.50
2023-05-22T18:00:53.217Z,4.00
2023-05-22T18:05:21.839Z,3.00
2023-05-22T18:09:50.786Z,2.00
2023-05-22T18:14:51.175Z,5.00
2023-05-22T18:17:19.513Z,4.00
2023-05-22T18:19:47.603Z,3.00
2023-05-22T18:22:15.727Z,3.00
2023-05-22T18:24:43.679Z,4.00
2023-05-22T18:27:11.802Z,3.00
2023-05-22T18:29:40.301Z,3.00
2023-05-22T18:32:10.939Z,4.00
2023-05-22T18:37:07.825Z,4.50
2023-05-22T18:39:37.461Z,3.00
2023-05-22T18:42:05.999Z,5.00
2023-05-22T18:44:34.184Z,4.00
2023-05-22T18:47:02.387Z,4.50
2023-05-22T18:49:32.064Z,4.00
2023-05-22T18:56:58.166Z,5.00
2023-05-22T18:59:27.221Z,3.00
2023-05-22T19:01:56.263Z,4.00
2023-05-22T19:04:24.554Z,5.00
2023-05-22T19:09:22.335Z,5.00
2023-05-22T19:11:50.506Z,6.00
2023-05-22T19:14:18.604Z,7.00
2023-05-22T19:16:46.840Z,5.50
2023-05-22T19:19:16.050Z,6.00
2023-05-22T19:21:44.308Z,7.00
2023-05-22T19:24:13.482Z,6.50
2023-05-22T19:26:42.042Z,6.00
2023-05-22T19:29:10.287Z,6.00
2023-05-22T19:31:39.535Z,5.00
2023-05-22T19:34:07.738Z,6.00
2023-05-22T19:36:36.340Z,6.00
2023-05-22T19:39:05.379Z,7.00
2023-05-22T19:41:59.070Z,6.00
2023-05-22T19:44:27.358Z,6.00
2023-05-22T19:46:56.706Z,6.00
2023-05-22T19:49:24.980Z,5.00
2023-05-22T19:51:55.928Z,5.00
2023-05-22T19:54:24.413Z,6.00
2023-05-22T19:56:52.545Z,4.50
2023-05-22T19:59:20.829Z,7.00
2023-05-22T20:01:49.311Z,5.00
2023-05-22T20:05:20.185Z,6.00
2023-05-22T20:11:52.730Z,6.00
2023-05-22T20:15:22.705Z,6.00
2023-05-22T20:18:14.401Z,5.00
2023-05-22T20:20:43.128Z,4.00
2023-05-22T20:35:18.829Z,6.00
2023-05-22T20:37:47.715Z,5.00
2023-05-22T20:40:16.086Z,6.50
2023-05-22T20:42:44.806Z,6.50
2023-05-22T20:47:44.431Z,6.00
2023-05-22T20:50:12.762Z,7.00
2023-05-22T20:52:41.071Z,7.00
2023-05-22T20:55:29.798Z,5.50
2023-05-22T20:57:57.847Z,7.00
2023-05-22T21:00:25.901Z,7.00
2023-05-22T21:02:54.916Z,6.00
2023-05-22T21:06:25.155Z,6.00
2023-05-22T21:09:35.965Z,6.00
2023-05-22T21:12:04.165Z,7.50
2023-05-22T21:14:32.318Z,8.00
2023-05-22T21:17:00.511Z,9.00
2023-05-22T21:19:28.756Z,6.00
2023-05-22T21:21:56.877Z,7.00
2023-05-22T21:24:25.041Z,8.00
2023-05-22T21:26:53.178Z,6.50
2023-05-22T21:29:21.274Z,6.00
2023-05-22T21:31:49.540Z,6.00
2023-05-22T21:36:45.805Z,8.00
2023-05-22T21:39:13.917Z,6.50
2023-05-22T21:44:10.160Z,7.00
2023-05-22T21:47:39.541Z,9.00
2023-05-22T21:51:15.566Z,7.50
2023-05-22T21:53:43.690Z,8.00
2023-05-22T21:58:49.088Z,8.00
2023-05-22T22:01:17.332Z,7.00
2023-05-22T22:03:45.439Z,8.00
2023-05-22T22:06:22.235Z,7.00
2023-05-22T22:08:50.216Z,7.00
2023-05-22T22:11:18.465Z,6.00
2023-05-22T22:13:46.461Z,7.50
2023-05-22T22:16:35.801Z,8.00
2023-05-22T22:19:05.173Z,6.00
2023-05-22T22:21:33.578Z,8.50
2023-05-22T22:24:01.839Z,6.50
2023-05-22T22:27:30.639Z,7.00
2023-05-22T22:30:36.553Z,7.00
2023-05-22T22:33:04.865Z,7.00
2023-05-22T22:36:29.346Z,8.00
2023-05-22T22:38:57.417Z,8.00
2023-05-22T22:41:26.208Z,6.00
2023-05-22T22:43:54.818Z,7.50
2023-05-22T22:46:23.085Z,6.00
2023-05-22T22:48:51.269Z,8.00
2023-05-22T22:51:24.728Z,7.50
2023-05-22T22:53:52.810Z,7.00
2023-05-22T22:56:21.020Z,7.00
2023-05-22T22:59:29.333Z,8.00
2023-05-22T23:01:57.409Z,8.00
2023-05-22T23:04:28.245Z,7.50
2023-05-22T23:06:57.666Z,9.50
2023-05-22T23:14:21.729Z,7.00
2023-05-22T23:16:49.731Z,8.00
2023-05-22T23:20:18.444Z,8.00
2023-05-22T23:24:47.517Z,8.00
2023-05-22T23:37:29.634Z,5.00
2023-05-22T23:41:18.674Z,5.50
2023-05-22T23:47:55.618Z,6.00
2023-05-22T23:50:23.833Z,6.50
2023-05-22T23:52:51.957Z,5.50
2023-05-22T23:55:20.031Z,7.00
2023-05-22T23:57:48.053Z,7.00
